sensor_id;sensor_type;location;lat;lon;timestamp;pressure;altitude;pressure_sealevel;temperature;humidity
85268;BME280;75677;52.380;4.876;2024-03-08T00:00:16;101994.97;;;18.47;35.17
85268;BME280;75677;52.380;4.876;2024-03-08T00:02:46;101984.53;;;18.40;35.25
85268;BME280;75677;52.380;4.876;2024-03-08T00:05:12;101996.19;;;18.46;35.24
85268;BME280;75677;52.380;4.876;2024-03-08T00:07:39;101985.38;;;18.44;35.23
85268;BME280;75677;52.380;4.876;2024-03-08T00:10:06;101992.16;;;18.43;34.92
85268;BME280;75677;52.380;4.876;2024-03-08T00:12:32;101970.19;;;18.45;35.13
85268;BME280;75677;52.380;4.876;2024-03-08T00:14:58;101976.16;;;18.44;35.07
85268;BME280;75677;52.380;4.876;2024-03-08T00:17:24;101967.75;;;18.40;34.99
85268;BME280;75677;52.380;4.876;2024-03-08T00:19:50;101972.53;;;18.40;34.97
85268;BME280;75677;52.380;4.876;2024-03-08T00:22:16;101966.94;;;18.40;35.06
85268;BME280;75677;52.380;4.876;2024-03-08T00:24:42;101979.38;;;18.42;35.09
85268;BME280;75677;52.380;4.876;2024-03-08T00:27:07;101969.34;;;18.41;35.03
85268;BME280;75677;52.380;4.876;2024-03-08T00:29:34;101963.75;;;18.41;34.92
85268;BME280;75677;52.380;4.876;2024-03-08T00:31:59;101966.94;;;18.40;34.96
85268;BME280;75677;52.380;4.876;2024-03-08T00:34:25;101962.56;;;18.39;34.90
85268;BME280;75677;52.380;4.876;2024-03-08T00:36:50;101959.75;;;18.39;34.94
85268;BME280;75677;52.380;4.876;2024-03-08T00:39:17;101958.13;;;18.38;34.71
85268;BME280;75677;52.380;4.876;2024-03-08T00:41:45;101950.94;;;18.37;34.54
85268;BME280;75677;52.380;4.876;2024-03-08T00:44:10;101955.34;;;18.38;34.55
85268;BME280;75677;52.380;4.876;2024-03-08T00:46:35;101956.13;;;18.35;34.66
85268;BME280;75677;52.380;4.876;2024-03-08T00:49:01;101942.94;;;18.35;34.81
85268;BME280;75677;52.380;4.876;2024-03-08T00:51:26;101940.13;;;18.32;34.83
85268;BME280;75677;52.380;4.876;2024-03-08T00:53:52;101943.75;;;18.36;34.64
85268;BME280;75677;52.380;4.876;2024-03-08T00:56:17;101937.34;;;18.35;34.65
85268;BME280;75677;52.380;4.876;2024-03-08T00:58:42;101941.31;;;18.34;34.70
85268;BME280;75677;52.380;4.876;2024-03-08T01:01:08;101938.91;;;18.33;34.60
85268;BME280;75677;52.380;4.876;2024-03-08T01:03:35;101925.69;;;18.26;34.56
85268;BME280;75677;52.380;4.876;2024-03-08T01:06:01;101935.72;;;18.31;34.57
85268;BME280;75677;52.380;4.876;2024-03-08T01:08:26;101933.31;;;18.29;34.58
85268;BME280;75677;52.380;4.876;2024-03-08T01:10:52;101926.91;;;18.29;34.38
85268;BME280;75677;52.380;4.876;2024-03-08T01:13:18;101918.50;;;18.25;34.68
85268;BME280;75677;52.380;4.876;2024-03-08T01:15:44;101920.09;;;18.26;34.53
85268;BME280;75677;52.380;4.876;2024-03-08T01:18:10;101912.50;;;18.27;34.58
85268;BME280;75677;52.380;4.876;2024-03-08T01:20:35;101906.50;;;18.25;34.52
85268;BME280;75677;52.380;4.876;2024-03-08T01:23:01;101901.28;;;18.23;34.51
85268;BME280;75677;52.380;4.876;2024-03-08T01:25:26;101893.69;;;18.24;34.54
85268;BME280;75677;52.380;4.876;2024-03-08T01:27:52;101897.28;;;18.24;34.62
85268;BME280;75677;52.380;4.876;2024-03-08T01:30:19;101898.91;;;18.25;34.54
85268;BME280;75677;52.380;4.876;2024-03-08T01:32:44;101890.50;;;18.25;34.47
85268;BME280;75677;52.380;4.876;2024-03-08T01:35:10;101886.91;;;18.25;34.36
85268;BME280;75677;52.380;4.876;2024-03-08T01:37:36;101884.91;;;18.25;34.44
85268;BME280;75677;52.380;4.876;2024-03-08T01:40:01;101882.50;;;18.24;34.39
85268;BME280;75677;52.380;4.876;2024-03-08T01:42:28;101875.69;;;18.18;34.55
85268;BME280;75677;52.380;4.876;2024-03-08T01:44:53;101882.91;;;18.22;34.37
85268;BME280;75677;52.380;4.876;2024-03-08T01:47:20;101874.88;;;18.21;34.42
85268;BME280;75677;52.380;4.876;2024-03-08T01:49:49;101863.69;;;18.21;34.34
85268;BME280;75677;52.380;4.876;2024-03-08T01:52:15;101861.69;;;18.18;34.36
85268;BME280;75677;52.380;4.876;2024-03-08T01:54:41;101862.88;;;18.17;34.35
85268;BME280;75677;52.380;4.876;2024-03-08T01:57:06;101863.69;;;18.21;34.34
85268;BME280;75677;52.380;4.876;2024-03-08T01:59:32;101862.88;;;18.20;34.31
85268;BME280;75677;52.380;4.876;2024-03-08T02:02:01;101852.91;;;18.19;34.34
85268;BME280;75677;52.380;4.876;2024-03-08T02:04:27;101852.09;;;18.19;34.22
85268;BME280;75677;52.380;4.876;2024-03-08T02:06:53;101850.09;;;18.19;34.29
85268;BME280;75677;52.380;4.876;2024-03-08T02:09:18;101859.28;;;18.20;34.24
85268;BME280;75677;52.380;4.876;2024-03-08T02:11:45;101848.50;;;18.18;34.17
85268;BME280;75677;52.380;4.876;2024-03-08T02:14:10;101838.09;;;18.15;34.16
85268;BME280;75677;52.380;4.876;2024-03-08T02:16:36;101845.31;;;18.16;34.09
85268;BME280;75677;52.380;4.876;2024-03-08T02:19:02;101849.69;;;18.17;34.32
85268;BME280;75677;52.380;4.876;2024-03-08T02:21:28;101847.69;;;18.18;34.10
85268;BME280;75677;52.380;4.876;2024-03-08T02:23:55;101834.13;;;18.16;34.03
85268;BME280;75677;52.380;4.876;2024-03-08T02:26:20;101834.50;;;18.15;34.16
85268;BME280;75677;52.380;4.876;2024-03-08T02:28:46;101830.09;;;18.17;34.16
85268;BME280;75677;52.380;4.876;2024-03-08T02:31:12;101828.50;;;18.16;34.04
85268;BME280;75677;52.380;4.876;2024-03-08T02:33:37;101818.09;;;18.13;34.02
85268;BME280;75677;52.380;4.876;2024-03-08T02:36:02;101820.88;;;18.13;34.08
85268;BME280;75677;52.380;4.876;2024-03-08T02:38:29;101808.50;;;18.11;34.11
85268;BME280;75677;52.380;4.876;2024-03-08T02:40:54;101808.50;;;18.11;34.06
85268;BME280;75677;52.380;4.876;2024-03-08T02:43:20;101806.13;;;18.13;34.14
85268;BME280;75677;52.380;4.876;2024-03-08T02:45:47;101812.09;;;18.15;33.97
85268;BME280;75677;52.380;4.876;2024-03-08T02:48:14;101809.72;;;18.10;34.11
85268;BME280;75677;52.380;4.876;2024-03-08T02:50:39;101802.91;;;18.14;34.00
85268;BME280;75677;52.380;4.876;2024-03-08T02:53:06;101782.91;;;18.05;34.10
85268;BME280;75677;52.380;4.876;2024-03-08T02:55:31;101803.72;;;18.15;33.97
85268;BME280;75677;52.380;4.876;2024-03-08T02:57:58;101799.31;;;18.14;34.01
85268;BME280;75677;52.380;4.876;2024-03-08T03:00:24;101794.13;;;18.12;33.92
85268;BME280;75677;52.380;4.876;2024-03-08T03:02:50;101778.09;;;18.02;34.03
85268;BME280;75677;52.380;4.876;2024-03-08T03:05:23;101784.50;;;18.13;33.95
85268;BME280;75677;52.380;4.876;2024-03-08T03:07:49;101792.13;;;18.13;33.98
85268;BME280;75677;52.380;4.876;2024-03-08T03:10:18;101778.13;;;18.13;33.93
85268;BME280;75677;52.380;4.876;2024-03-08T03:12:45;101773.72;;;18.12;33.85
85268;BME280;75677;52.380;4.876;2024-03-08T03:15:11;101783.72;;;18.13;33.88
85268;BME280;75677;52.380;4.876;2024-03-08T03:17:37;101776.53;;;18.12;33.86
85268;BME280;75677;52.380;4.876;2024-03-08T03:20:05;101775.72;;;18.11;33.90
85268;BME280;75677;52.380;4.876;2024-03-08T03:22:36;101764.50;;;18.07;33.86
85268;BME280;75677;52.380;4.876;2024-03-08T03:25:02;101767.72;;;18.10;34.06
85268;BME280;75677;52.380;4.876;2024-03-08T03:27:29;101762.91;;;18.10;33.85
85268;BME280;75677;52.380;4.876;2024-03-08T03:29:56;101770.91;;;18.12;34.09
85268;BME280;75677;52.380;4.876;2024-03-08T03:32:23;101764.94;;;18.10;33.83
85268;BME280;75677;52.380;4.876;2024-03-08T03:34:49;101761.31;;;18.09;34.08
85268;BME280;75677;52.380;4.876;2024-03-08T03:37:20;101762.53;;;18.08;33.81
85268;BME280;75677;52.380;4.876;2024-03-08T03:39:45;101760.53;;;18.08;33.64
85268;BME280;75677;52.380;4.876;2024-03-08T03:42:15;101751.72;;;18.06;33.77
85268;BME280;75677;52.380;4.876;2024-03-08T03:44:43;101748.91;;;18.06;33.76
85268;BME280;75677;52.380;4.876;2024-03-08T03:47:09;101750.94;;;18.06;33.65
85268;BME280;75677;52.380;4.876;2024-03-08T03:49:34;101740.50;;;18.06;33.73
85268;BME280;75677;52.380;4.876;2024-03-08T03:52:00;101746.53;;;18.05;33.69
85268;BME280;75677;52.380;4.876;2024-03-08T03:54:25;101746.91;;;18.03;33.67
85268;BME280;75677;52.380;4.876;2024-03-08T03:56:50;101739.31;;;18.04;33.66
85268;BME280;75677;52.380;4.876;2024-03-08T03:59:18;101732.53;;;18.01;33.74
85268;BME280;75677;52.380;4.876;2024-03-08T04:01:44;101734.13;;;18.02;33.64
85268;BME280;75677;52.380;4.876;2024-03-08T04:04:09;101742.13;;;18.04;33.66
85268;BME280;75677;52.380;4.876;2024-03-08T04:06:37;101736.53;;;18.04;33.58
85268;BME280;75677;52.380;4.876;2024-03-08T04:09:02;101732.91;;;18.03;33.64
85268;BME280;75677;52.380;4.876;2024-03-08T04:11:28;101732.53;;;18.01;33.65
85268;BME280;75677;52.380;4.876;2024-03-08T04:13:53;101664.50;;;17.59;33.78
85268;BME280;75677;52.380;4.876;2024-03-08T04:16:19;101728.53;;;18.02;33.54
85268;BME280;75677;52.380;4.876;2024-03-08T04:18:45;101716.53;;;17.98;33.54
85268;BME280;75677;52.380;4.876;2024-03-08T04:21:10;101724.13;;;18.01;33.53
85268;BME280;75677;52.380;4.876;2024-03-08T04:23:36;101729.72;;;18.01;33.53
85268;BME280;75677;52.380;4.876;2024-03-08T04:26:04;101705.72;;;17.93;33.45
85268;BME280;75677;52.380;4.876;2024-03-08T04:28:31;101718.53;;;18.01;33.50
85268;BME280;75677;52.380;4.876;2024-03-08T04:30:57;101714.53;;;17.99;33.54
85268;BME280;75677;52.380;4.876;2024-03-08T04:33:22;101704.53;;;17.94;33.44
85268;BME280;75677;52.380;4.876;2024-03-08T04:35:48;101704.53;;;17.98;33.44
85268;BME280;75677;52.380;4.876;2024-03-08T04:38:14;101718.13;;;18.03;33.42
85268;BME280;75677;52.380;4.876;2024-03-08T04:40:41;101708.53;;;18.00;33.29
85268;BME280;75677;52.380;4.876;2024-03-08T04:43:06;101710.53;;;18.00;33.50
85268;BME280;75677;52.380;4.876;2024-03-08T04:45:33;101711.75;;;17.99;33.43
85268;BME280;75677;52.380;4.876;2024-03-08T04:47:59;101714.91;;;17.97;33.35
85268;BME280;75677;52.380;4.876;2024-03-08T04:50:24;101708.13;;;17.95;33.29
85268;BME280;75677;52.380;4.876;2024-03-08T04:52:50;101714.13;;;17.97;33.31
85268;BME280;75677;52.380;4.876;2024-03-08T04:55:15;101707.34;;;17.98;33.26
85268;BME280;75677;52.380;4.876;2024-03-08T04:57:40;101705.72;;;17.97;33.38
85268;BME280;75677;52.380;4.876;2024-03-08T05:00:07;101708.53;;;17.97;33.35
85268;BME280;75677;52.380;4.876;2024-03-08T05:02:36;101698.56;;;17.96;33.23
85268;BME280;75677;52.380;4.876;2024-03-08T05:05:08;101701.72;;;17.94;33.40
85268;BME280;75677;52.380;4.876;2024-03-08T05:07:36;101698.56;;;17.96;33.40
85268;BME280;75677;52.380;4.876;2024-03-08T05:10:01;101697.34;;;17.97;33.35
85268;BME280;75677;52.380;4.876;2024-03-08T05:12:27;101690.16;;;17.96;33.24
85268;BME280;75677;52.380;4.876;2024-03-08T05:14:53;101692.16;;;17.95;33.16
85268;BME280;75677;52.380;4.876;2024-03-08T05:17:19;101689.72;;;17.94;33.16
85268;BME280;75677;52.380;4.876;2024-03-08T05:19:44;101694.16;;;17.95;33.17
85268;BME280;75677;52.380;4.876;2024-03-08T05:22:10;101680.53;;;17.93;33.17
85268;BME280;75677;52.380;4.876;2024-03-08T05:24:35;101683.34;;;17.93;33.16
85268;BME280;75677;52.380;4.876;2024-03-08T05:27:01;101675.75;;;17.90;33.17
85268;BME280;75677;52.380;4.876;2024-03-08T05:29:28;101686.13;;;17.93;33.28
85268;BME280;75677;52.380;4.876;2024-03-08T05:31:54;101672.53;;;17.85;33.44
85268;BME280;75677;52.380;4.876;2024-03-08T05:34:20;101683.34;;;17.93;33.26
85268;BME280;75677;52.380;4.876;2024-03-08T05:36:47;101686.13;;;17.97;33.24
85268;BME280;75677;52.380;4.876;2024-03-08T05:39:15;101684.94;;;17.98;33.18
85268;BME280;75677;52.380;4.876;2024-03-08T05:41:41;101683.34;;;18.00;33.36
85268;BME280;75677;52.380;4.876;2024-03-08T05:44:06;101674.16;;;18.03;33.26
85268;BME280;75677;52.380;4.876;2024-03-08T05:46:33;101675.78;;;18.04;33.27
85268;BME280;75677;52.380;4.876;2024-03-08T05:48:58;101674.97;;;18.11;33.23
85268;BME280;75677;52.380;4.876;2024-03-08T05:51:24;101677.78;;;18.18;33.11
85268;BME280;75677;52.380;4.876;2024-03-08T05:53:51;101676.19;;;18.21;33.32
85268;BME280;75677;52.380;4.876;2024-03-08T05:56:18;101679.78;;;18.28;33.36
85268;BME280;75677;52.380;4.876;2024-03-08T05:58:44;101679.38;;;18.33;33.41
85268;BME280;75677;52.380;4.876;2024-03-08T06:01:10;101673.78;;;18.37;33.40
85268;BME280;75677;52.380;4.876;2024-03-08T06:03:38;101669.78;;;18.41;33.07
85268;BME280;75677;52.380;4.876;2024-03-08T06:06:12;101672.19;;;18.36;32.54
85268;BME280;75677;52.380;4.876;2024-03-08T06:08:38;101667.78;;;18.31;32.40
85268;BME280;75677;52.380;4.876;2024-03-08T06:11:04;101661.00;;;18.18;32.52
85268;BME280;75677;52.380;4.876;2024-03-08T06:13:31;101668.97;;;18.23;32.54
85268;BME280;75677;52.380;4.876;2024-03-08T06:15:57;101661.38;;;18.20;32.61
85268;BME280;75677;52.380;4.876;2024-03-08T06:18:22;101660.56;;;18.20;32.45
85268;BME280;75677;52.380;4.876;2024-03-08T06:20:48;101665.41;;;18.19;32.92
85268;BME280;75677;52.380;4.876;2024-03-08T06:23:13;101644.19;;;18.11;32.48
85268;BME280;75677;52.380;4.876;2024-03-08T06:25:44;101660.56;;;18.20;32.45
85268;BME280;75677;52.380;4.876;2024-03-08T06:28:09;101656.19;;;18.19;32.33
85268;BME280;75677;52.380;4.876;2024-03-08T06:30:35;101660.59;;;18.16;32.14
85268;BME280;75677;52.380;4.876;2024-03-08T06:33:00;101659.38;;;18.17;32.00
85268;BME280;75677;52.380;4.876;2024-03-08T06:35:25;101652.97;;;18.13;32.19
85268;BME280;75677;52.380;4.876;2024-03-08T06:37:51;101659.81;;;18.16;31.79
85268;BME280;75677;52.380;4.876;2024-03-08T06:40:16;101650.22;;;18.10;31.96
85268;BME280;75677;52.380;4.876;2024-03-08T06:42:42;101652.97;;;18.13;31.92
85268;BME280;75677;52.380;4.876;2024-03-08T06:45:08;101650.19;;;18.13;31.86
85268;BME280;75677;52.380;4.876;2024-03-08T06:47:35;101645.00;;;18.15;32.20
85268;BME280;75677;52.380;4.876;2024-03-08T06:50:00;101655.41;;;18.25;32.35
85268;BME280;75677;52.380;4.876;2024-03-08T06:52:26;101649.38;;;18.30;32.44
85268;BME280;75677;52.380;4.876;2024-03-08T06:54:51;101643.78;;;18.34;32.65
85268;BME280;75677;52.380;4.876;2024-03-08T06:57:18;101633.81;;;18.29;32.65
85268;BME280;75677;52.380;4.876;2024-03-08T06:59:45;101655.78;;;18.38;32.95
85268;BME280;75677;52.380;4.876;2024-03-08T07:02:11;101646.19;;;18.39;32.85
85268;BME280;75677;52.380;4.876;2024-03-08T07:04:36;101643.41;;;18.39;32.67
85268;BME280;75677;52.380;4.876;2024-03-08T07:07:06;101621.00;;;18.32;32.84
85268;BME280;75677;52.380;4.876;2024-03-08T07:09:40;101635.78;;;18.43;32.82
85268;BME280;75677;52.380;4.876;2024-03-08T07:12:08;101627.38;;;18.46;32.81
85268;BME280;75677;52.380;4.876;2024-03-08T07:14:33;101634.59;;;18.47;32.69
85268;BME280;75677;52.380;4.876;2024-03-08T07:16:59;101615.41;;;18.39;32.88
85268;BME280;75677;52.380;4.876;2024-03-08T07:19:24;101621.38;;;18.44;32.81
85268;BME280;75677;52.380;4.876;2024-03-08T07:21:49;101622.59;;;18.50;33.06
85268;BME280;75677;52.380;4.876;2024-03-08T07:24:15;101614.59;;;18.42;32.71
85268;BME280;75677;52.380;4.876;2024-03-08T07:26:43;101623.78;;;18.56;32.55
85268;BME280;75677;52.380;4.876;2024-03-08T07:29:09;101619.41;;;18.55;32.08
85268;BME280;75677;52.380;4.876;2024-03-08T07:31:34;101611.41;;;18.50;32.60
85268;BME280;75677;52.380;4.876;2024-03-08T07:34:10;101630.19;;;18.57;32.57
85268;BME280;75677;52.380;4.876;2024-03-08T07:36:36;101627.81;;;18.59;32.15
85268;BME280;75677;52.380;4.876;2024-03-08T07:39:01;101616.19;;;18.57;32.23
85268;BME280;75677;52.380;4.876;2024-03-08T07:41:27;101620.19;;;18.59;32.32
85268;BME280;75677;52.380;4.876;2024-03-08T07:43:54;101606.19;;;18.59;32.11
85268;BME280;75677;52.380;4.876;2024-03-08T07:46:19;101609.78;;;18.60;32.30
85268;BME280;75677;52.380;4.876;2024-03-08T07:48:45;101607.41;;;18.62;32.01
85268;BME280;75677;52.380;4.876;2024-03-08T07:51:11;101613.00;;;18.62;32.08
85268;BME280;75677;52.380;4.876;2024-03-08T07:53:37;101603.78;;;18.62;32.00
85268;BME280;75677;52.380;4.876;2024-03-08T07:56:04;101607.41;;;18.66;32.01
85268;BME280;75677;52.380;4.876;2024-03-08T07:58:34;101604.59;;;18.66;31.94
85268;BME280;75677;52.380;4.876;2024-03-08T08:00:59;101597.75;;;18.67;31.96
85268;BME280;75677;52.380;4.876;2024-03-08T08:03:25;101586.19;;;18.68;31.96
85268;BME280;75677;52.380;4.876;2024-03-08T08:05:50;101586.56;;;18.63;31.83
85268;BME280;75677;52.380;4.876;2024-03-08T08:08:16;101591.34;;;18.70;31.68
85268;BME280;75677;52.380;4.876;2024-03-08T08:10:41;101594.56;;;18.68;31.88
85268;BME280;75677;52.380;4.876;2024-03-08T08:13:07;101595.75;;;18.71;31.74
85268;BME280;75677;52.380;4.876;2024-03-08T08:15:33;101592.97;;;18.71;31.77
85268;BME280;75677;52.380;4.876;2024-03-08T08:18:01;101585.75;;;18.73;31.67
85268;BME280;75677;52.380;4.876;2024-03-08T08:20:30;101579.38;;;18.69;31.53
85268;BME280;75677;52.380;4.876;2024-03-08T08:22:56;101573.78;;;18.69;31.54
85268;BME280;75677;52.380;4.876;2024-03-08T08:25:22;101573.34;;;18.78;31.90
85268;BME280;75677;52.380;4.876;2024-03-08T08:27:49;101570.53;;;18.81;32.09
85268;BME280;75677;52.380;4.876;2024-03-08T08:30:15;101546.16;;;18.68;32.36
85268;BME280;75677;52.380;4.876;2024-03-08T08:32:40;101572.50;;;18.88;32.42
85268;BME280;75677;52.380;4.876;2024-03-08T08:35:07;101574.88;;;18.89;32.77
85268;BME280;75677;52.380;4.876;2024-03-08T08:37:39;101569.69;;;18.95;33.28
85268;BME280;75677;52.380;4.876;2024-03-08T08:40:05;101569.25;;;18.96;32.85
85268;BME280;75677;52.380;4.876;2024-03-08T08:42:35;101548.06;;;18.92;32.69
85268;BME280;75677;52.380;4.876;2024-03-08T08:45:00;101550.84;;;18.99;32.35
85268;BME280;75677;52.380;4.876;2024-03-08T08:47:29;101554.41;;;18.99;32.36
85268;BME280;75677;52.380;4.876;2024-03-08T08:49:54;101546.06;;;18.92;32.11
85268;BME280;75677;52.380;4.876;2024-03-08T08:52:20;101558.03;;;19.00;32.09
85268;BME280;75677;52.380;4.876;2024-03-08T08:54:45;101556.03;;;19.00;32.03
85268;BME280;75677;52.380;4.876;2024-03-08T08:57:11;101526.06;;;18.90;32.37
85268;BME280;75677;52.380;4.876;2024-03-08T08:59:36;101536.41;;;19.04;32.05
85268;BME280;75677;52.380;4.876;2024-03-08T09:02:05;101542.00;;;19.04;31.74
85268;BME280;75677;52.380;4.876;2024-03-08T09:04:30;101532.44;;;18.98;31.99
85268;BME280;75677;52.380;4.876;2024-03-08T09:06:58;101507.63;;;18.89;31.75
85268;BME280;75677;52.380;4.876;2024-03-08T09:09:24;101531.16;;;19.06;31.67
85268;BME280;75677;52.380;4.876;2024-03-08T09:11:50;101522.75;;;19.06;31.83
85268;BME280;75677;52.380;4.876;2024-03-08T09:14:16;101527.59;;;19.05;31.83
85268;BME280;75677;52.380;4.876;2024-03-08T09:16:41;101525.97;;;19.08;31.84
85268;BME280;75677;52.380;4.876;2024-03-08T09:19:07;101518.75;;;19.07;31.63
85268;BME280;75677;52.380;4.876;2024-03-08T09:21:33;101514.75;;;19.08;31.68
85268;BME280;75677;52.380;4.876;2024-03-08T09:24:00;101517.56;;;19.08;31.83
85268;BME280;75677;52.380;4.876;2024-03-08T09:26:26;101516.34;;;19.09;31.46
85268;BME280;75677;52.380;4.876;2024-03-08T09:28:52;101511.13;;;19.11;31.60
85268;BME280;75677;52.380;4.876;2024-03-08T09:31:17;101501.94;;;19.07;31.73
85268;BME280;75677;52.380;4.876;2024-03-08T09:33:42;101509.50;;;19.14;31.59
85268;BME280;75677;52.380;4.876;2024-03-08T09:36:08;101500.72;;;19.15;31.52
85268;BME280;75677;52.380;4.876;2024-03-08T09:38:33;101486.72;;;19.12;31.64
85268;BME280;75677;52.380;4.876;2024-03-08T09:41:02;101499.09;;;19.18;31.38
85268;BME280;75677;52.380;4.876;2024-03-08T09:43:29;101492.28;;;19.19;31.49
85268;BME280;75677;52.380;4.876;2024-03-08T09:45:57;101474.72;;;19.11;31.55
85268;BME280;75677;52.380;4.876;2024-03-08T09:48:26;101483.84;;;19.22;31.60
85268;BME280;75677;52.380;4.876;2024-03-08T09:50:52;101474.22;;;19.23;31.20
85268;BME280;75677;52.380;4.876;2024-03-08T09:53:17;101451.94;;;19.05;31.47
85268;BME280;75677;52.380;4.876;2024-03-08T09:55:43;101464.22;;;19.22;31.33
85268;BME280;75677;52.380;4.876;2024-03-08T09:58:11;101453.41;;;19.21;31.40
85268;BME280;75677;52.380;4.876;2024-03-08T10:00:53;101449.00;;;19.20;31.25
85268;BME280;75677;52.380;4.876;2024-03-08T10:03:19;101457.78;;;19.29;31.47
85268;BME280;75677;52.380;4.876;2024-03-08T10:05:45;101433.44;;;19.19;31.19
85268;BME280;75677;52.380;4.876;2024-03-08T10:08:10;101448.13;;;19.30;31.31
85268;BME280;75677;52.380;4.876;2024-03-08T10:10:36;101443.72;;;19.32;31.10
85268;BME280;75677;52.380;4.876;2024-03-08T10:13:06;101435.28;;;19.32;30.84
85268;BME280;75677;52.380;4.876;2024-03-08T10:15:31;101444.50;;;19.33;31.05
85268;BME280;75677;52.380;4.876;2024-03-08T10:17:58;101432.91;;;19.34;31.18
85268;BME280;75677;52.380;4.876;2024-03-08T10:20:24;101436.50;;;19.35;31.26
85268;BME280;75677;52.380;4.876;2024-03-08T10:22:51;101418.06;;;19.34;31.05
85268;BME280;75677;52.380;4.876;2024-03-08T10:25:19;101426.47;;;19.37;31.16
85268;BME280;75677;52.380;4.876;2024-03-08T10:27:44;101422.84;;;19.37;31.42
85268;BME280;75677;52.380;4.876;2024-03-08T10:30:14;101409.63;;;19.37;31.17
85268;BME280;75677;52.380;4.876;2024-03-08T10:32:40;101414.84;;;19.39;31.30
85268;BME280;75677;52.380;4.876;2024-03-08T10:35:07;101408.00;;;19.40;30.96
85268;BME280;75677;52.380;4.876;2024-03-08T10:37:38;101398.03;;;19.39;30.99
85268;BME280;75677;52.380;4.876;2024-03-08T10:40:10;101388.03;;;19.34;31.04
85268;BME280;75677;52.380;4.876;2024-03-08T10:45:35;101376.38;;;19.36;31.13
85268;BME280;75677;52.380;4.876;2024-03-08T10:48:10;101388.00;;;19.41;30.95
85268;BME280;75677;52.380;4.876;2024-03-08T10:50:41;101380.41;;;19.42;31.31
85268;BME280;75677;52.380;4.876;2024-03-08T10:53:13;101376.38;;;19.43;31.09
85268;BME280;75677;52.380;4.876;2024-03-08T10:55:40;101361.59;;;19.35;31.21
85268;BME280;75677;52.380;4.876;2024-03-08T10:58:06;101363.16;;;19.43;31.12
85268;BME280;75677;52.380;4.876;2024-03-08T11:00:34;101359.97;;;19.38;31.03
85268;BME280;75677;52.380;4.876;2024-03-08T11:03:00;101367.94;;;19.43;30.83
85268;BME280;75677;52.380;4.876;2024-03-08T11:05:51;101356.72;;;19.43;31.26
85268;BME280;75677;52.380;4.876;2024-03-08T11:10:54;101338.34;;;19.42;31.32
85268;BME280;75677;52.380;4.876;2024-03-08T11:13:41;101337.09;;;19.43;31.06
85268;BME280;75677;52.380;4.876;2024-03-08T11:16:10;101324.31;;;19.42;31.20
85268;BME280;75677;52.380;4.876;2024-03-08T11:18:36;101329.13;;;19.41;31.10
85268;BME280;75677;52.380;4.876;2024-03-08T11:21:08;101319.09;;;19.44;31.17
85268;BME280;75677;52.380;4.876;2024-03-08T11:23:37;101320.72;;;19.41;30.98
85268;BME280;75677;52.380;4.876;2024-03-08T11:26:03;101304.25;;;19.40;30.95
85268;BME280;75677;52.380;4.876;2024-03-08T11:28:32;101299.50;;;19.40;30.88
85268;BME280;75677;52.380;4.876;2024-03-08T11:33:30;101294.69;;;19.41;31.03
85268;BME280;75677;52.380;4.876;2024-03-08T11:36:22;101289.88;;;19.41;31.46
85268;BME280;75677;52.380;4.876;2024-03-08T11:38:48;101277.84;;;19.41;31.23
85268;BME280;75677;52.380;4.876;2024-03-08T11:41:16;101280.66;;;19.41;31.17
85268;BME280;75677;52.380;4.876;2024-03-08T11:43:43;101274.25;;;19.40;31.32
85268;BME280;75677;52.380;4.876;2024-03-08T11:46:12;101258.25;;;19.37;31.48
85268;BME280;75677;52.380;4.876;2024-03-08T11:48:39;101265.84;;;19.40;31.40
85268;BME280;75677;52.380;4.876;2024-03-08T11:51:11;101253.47;;;19.34;31.46
85268;BME280;75677;52.380;4.876;2024-03-08T11:53:40;101260.63;;;19.39;31.26
85268;BME280;75677;52.380;4.876;2024-03-08T11:56:13;101247.88;;;19.34;31.57
85268;BME280;75677;52.380;4.876;2024-03-08T11:58:40;101257.03;;;19.38;31.42
85268;BME280;75677;52.380;4.876;2024-03-08T12:01:10;101245.38;;;19.40;31.36
85268;BME280;75677;52.380;4.876;2024-03-08T12:03:41;101229.41;;;19.37;31.31
85268;BME280;75677;52.380;4.876;2024-03-08T12:06:12;101231.81;;;19.38;31.31
85268;BME280;75677;52.380;4.876;2024-03-08T12:08:38;101238.22;;;19.39;31.46
85268;BME280;75677;52.380;4.876;2024-03-08T12:11:04;101216.59;;;19.36;31.19
85268;BME280;75677;52.380;4.876;2024-03-08T12:13:32;101213.38;;;19.37;31.52
85268;BME280;75677;52.380;4.876;2024-03-08T12:15:59;101197.44;;;19.31;31.15
85268;BME280;75677;52.380;4.876;2024-03-08T12:18:28;101197.75;;;19.36;31.60
85268;BME280;75677;52.380;4.876;2024-03-08T12:21:10;101182.59;;;19.34;31.23
85268;BME280;75677;52.380;4.876;2024-03-08T12:23:36;101176.19;;;19.33;31.34
85268;BME280;75677;52.380;4.876;2024-03-08T12:26:16;101183.38;;;19.34;34.31
85268;BME280;75677;52.380;4.876;2024-03-08T12:28:42;101177.34;;;19.36;31.73
85268;BME280;75677;52.380;4.876;2024-03-08T12:31:11;101169.72;;;19.36;31.74
85268;BME280;75677;52.380;4.876;2024-03-08T12:33:54;101179.34;;;19.39;31.63
85268;BME280;75677;52.380;4.876;2024-03-08T12:36:21;101164.97;;;19.33;31.52
85268;BME280;75677;52.380;4.876;2024-03-08T12:38:47;101177.72;;;19.38;31.56
85268;BME280;75677;52.380;4.876;2024-03-08T12:41:19;101180.53;;;19.38;31.69
85268;BME280;75677;52.380;4.876;2024-03-08T12:43:45;101172.13;;;19.38;31.37
85268;BME280;75677;52.380;4.876;2024-03-08T12:46:17;101163.72;;;19.38;31.42
85268;BME280;75677;52.380;4.876;2024-03-08T12:48:43;101139.03;;;19.26;31.24
85268;BME280;75677;52.380;4.876;2024-03-08T12:51:16;101158.50;;;19.36;31.12
85268;BME280;75677;52.380;4.876;2024-03-08T12:53:43;101150.91;;;19.37;31.21
85268;BME280;75677;52.380;4.876;2024-03-08T12:56:10;101148.53;;;19.35;31.26